createdAt,value
2022-11-07T00:01:51.380Z,100115.25
2022-11-07T00:04:18.180Z,100117.81
2022-11-07T00:06:44.920Z,100121.19
2022-11-07T00:09:11.698Z,100123.13
2022-11-07T00:11:38.389Z,100125.56
2022-11-07T00:14:06.243Z,100129.91
2022-11-07T00:16:33.214Z,100137.78
2022-11-07T00:18:59.934Z,100135.69
2022-11-07T00:21:26.694Z,100141.81
2022-11-07T00:23:53.380Z,100142.16
2022-11-07T00:26:20.117Z,100140.06
2022-11-07T00:28:47.403Z,100140.06
2022-11-07T00:31:16.332Z,100147.19
2022-11-07T00:33:43.933Z,100139.94
2022-11-07T00:36:18.697Z,100143.81
2022-11-07T00:38:45.927Z,100143.16
2022-11-07T00:41:13.076Z,100143.66
2022-11-07T00:43:39.855Z,100141.91
2022-11-07T00:46:08.298Z,100141.25
2022-11-07T00:48:35.508Z,100145.78
2022-11-07T00:51:10.464Z,100147.06
2022-11-07T00:53:39.038Z,100143.34
2022-11-07T00:56:09.395Z,100148.66
2022-11-07T00:58:37.061Z,100141.91
2022-11-07T01:01:20.187Z,100141.25
2022-11-07T01:04:06.318Z,100133.38
2022-11-07T01:06:34.992Z,100141.78
2022-11-07T01:09:02.114Z,100141.59
2022-11-07T01:11:31.350Z,100147.72
2022-11-07T01:13:59.867Z,100141.25
2022-11-07T01:16:27.562Z,100145.44
2022-11-07T01:18:54.508Z,100150.47
2022-11-07T01:21:21.583Z,100148.81
2022-11-07T01:23:48.609Z,100142.88
2022-11-07T01:26:16.039Z,100147.09
2022-11-07T01:28:42.935Z,100144.19
2022-11-07T01:31:12.556Z,100142.56
2022-11-07T01:33:40.560Z,100139.03
2022-11-07T01:36:11.797Z,100134.19
2022-11-07T01:38:45.467Z,100137.72
2022-11-07T01:41:21.244Z,100137.72
2022-11-07T01:44:02.209Z,100140.63
2022-11-07T01:46:41.756Z,100142.22
2022-11-07T01:49:11.861Z,100127.72
2022-11-07T01:51:55.666Z,100137.59
2022-11-07T01:54:25.171Z,100132.44
2022-11-07T01:56:56.155Z,100145.59
2022-11-07T01:59:26.732Z,100132.88
2022-11-07T02:01:54.867Z,100131.63
2022-11-07T02:04:25.559Z,100135.47
2022-11-07T02:07:03.162Z,100133.53
2022-11-07T02:09:30.264Z,100132.38
2022-11-07T02:12:01.048Z,100131.41
2022-11-07T02:14:31.027Z,100131.41
2022-11-07T02:17:00.180Z,100135.63
2022-11-07T02:19:39.428Z,100141.28
2022-11-07T02:22:43.202Z,100135.13
2022-11-07T02:25:13.330Z,100136.44
2022-11-07T02:27:42.534Z,100139.94
2022-11-07T02:30:13.319Z,100136.91
2022-11-07T02:32:40.580Z,100144.16
2022-11-07T02:35:30.335Z,100146.41
2022-11-07T02:37:58.363Z,100153.31
2022-11-07T02:40:25.311Z,100149.78
2022-11-07T02:42:52.364Z,100148.97
2022-11-07T02:45:29.407Z,100143.94
2022-11-07T02:47:58.782Z,100150.59
2022-11-07T02:50:25.892Z,100148.81
2022-11-07T02:52:52.599Z,100149.63
2022-11-07T02:55:19.426Z,100145.44
2022-11-07T02:58:06.528Z,100152.34
2022-11-07T03:00:53.300Z,100152.19
2022-11-07T03:03:43.299Z,100141.25
2022-11-07T03:06:30.008Z,100145.25
2022-11-07T03:09:16.615Z,100154.78
2022-11-07T03:12:03.405Z,100146.41
2022-11-07T03:14:50.070Z,100161.06
2022-11-07T03:17:35.642Z,100163.16
2022-11-07T03:20:22.225Z,100160.22
2022-11-07T03:23:08.945Z,100179.72
2022-11-07T03:25:55.755Z,100183.75
2022-11-07T03:28:43.918Z,100182.13
2022-11-07T03:31:31.474Z,100192.44
2022-11-07T03:34:18.177Z,100190.50
2022-11-07T03:37:05.138Z,100188.91
2022-11-07T03:39:50.158Z,100187.13
2022-11-07T03:42:40.755Z,100180.19
2022-11-07T03:45:27.446Z,100190.50
2022-11-07T03:48:14.033Z,100195.66
2022-11-07T03:51:01.045Z,100205.19
2022-11-07T03:53:47.666Z,100199.22
2022-11-07T03:56:34.315Z,100200.81
2022-11-07T03:59:21.060Z,100207.25
2022-11-07T04:02:08.861Z,100212.13
2022-11-07T04:04:55.834Z,100204.19
2022-11-07T04:07:42.474Z,100210.47
2022-11-07T04:10:29.200Z,100214.66
2022-11-07T04:13:36.828Z,100218.53
2022-11-07T04:16:42.005Z,100219.19
2022-11-07T04:19:28.680Z,100227.59
2022-11-07T04:22:15.499Z,100224.50
2022-11-07T04:25:02.241Z,100226.75
2022-11-07T04:27:50.276Z,100232.69
2022-11-07T04:30:37.212Z,100234.81
2022-11-07T04:33:23.867Z,100234.09
2022-11-07T04:36:10.516Z,100232.50
2022-11-07T04:38:57.141Z,100237.63
2022-11-07T04:41:43.777Z,100230.63
2022-11-07T04:44:30.386Z,100237.38
2022-11-07T04:47:17.005Z,100234.75
2022-11-07T04:50:04.738Z,100238.94
2022-11-07T04:52:52.296Z,100230.47
2022-11-07T04:55:38.896Z,100243.00
2022-11-07T04:58:25.486Z,100240.38
2022-11-07T05:01:12.191Z,100237.75
2022-11-07T05:03:58.846Z,100249.34
2022-11-07T05:06:45.478Z,100241.88
2022-11-07T05:09:33.081Z,100255.09
2022-11-07T05:12:20.076Z,100243.63
2022-11-07T05:15:09.628Z,100256.81
2022-11-07T05:17:55.083Z,100246.13
2022-11-07T05:20:42.732Z,100245.81
2022-11-07T05:23:29.369Z,100253.38
2022-11-07T05:26:16.011Z,100252.22
2022-11-07T05:29:02.875Z,100258.81
2022-11-07T05:31:49.569Z,100253.00
2022-11-07T05:34:36.377Z,100256.22
2022-11-07T05:37:22.999Z,100266.69
2022-11-07T05:40:10.318Z,100268.41
2022-11-07T05:43:05.362Z,100265.47
2022-11-07T05:45:52.505Z,100261.38
2022-11-07T05:48:39.106Z,100271.84
2022-11-07T05:51:25.762Z,100278.44
2022-11-07T05:54:11.999Z,100280.81
2022-11-07T05:56:59.121Z,100273.53
2022-11-07T05:59:45.763Z,100281.88
2022-11-07T06:02:32.479Z,100288.22
2022-11-07T06:05:23.877Z,100300.34
2022-11-07T06:08:13.183Z,100303.94
2022-11-07T06:11:03.793Z,100297.16
2022-11-07T06:13:50.391Z,100310.06
2022-11-07T06:16:37.303Z,100306.22
2022-11-07T06:19:23.923Z,100310.13
2022-11-07T06:22:10.567Z,100318.78
2022-11-07T06:24:57.469Z,100319.31
2022-11-07T06:27:44.302Z,100330.53
2022-11-07T06:30:31.849Z,100322.19
2022-11-07T06:33:19.974Z,100331.41
2022-11-07T06:36:09.563Z,100333.63
2022-11-07T06:38:56.227Z,100341.66
2022-11-07T06:41:42.860Z,100347.28
2022-11-07T06:44:29.489Z,100344.63
2022-11-07T06:47:16.078Z,100354.00
2022-11-07T06:50:02.692Z,100355.53
2022-11-07T06:52:49.567Z,100365.94
2022-11-07T06:55:37.238Z,100362.84
2022-11-07T06:58:24.040Z,100364.63
2022-11-07T07:01:13.631Z,100358.97
2022-11-07T07:04:00.821Z,100366.13
2022-11-07T07:06:46.038Z,100367.31
2022-11-07T07:09:31.255Z,100366.13
2022-11-07T07:12:16.563Z,100372.31
2022-11-07T07:15:02.487Z,100372.47
2022-11-07T07:17:49.727Z,100376.22
2022-11-07T07:20:34.952Z,100375.25
2022-11-07T07:23:21.704Z,100377.66
2022-11-07T07:26:11.650Z,100369.09
2022-11-07T07:28:56.671Z,100371.06
2022-11-07T07:31:41.850Z,100371.06
2022-11-07T07:34:26.833Z,100367.47
2022-11-07T07:37:12.573Z,100370.97
2022-11-07T07:40:00.632Z,100364.63
2022-11-07T07:42:46.503Z,100365.59
2022-11-07T07:45:32.252Z,100364.25
2022-11-07T07:48:17.790Z,100374.53
2022-11-07T07:51:03.246Z,100372.13
2022-11-07T07:53:48.677Z,100369.06
2022-11-07T07:56:33.727Z,100378.00
2022-11-07T07:59:19.448Z,100387.38
2022-11-07T08:02:05.067Z,100384.69
2022-11-07T08:04:50.275Z,100378.97
2022-11-07T08:07:35.361Z,100388.69
2022-11-07T08:10:41.037Z,100391.66
2022-11-07T08:13:27.010Z,100399.63
2022-11-07T08:16:12.084Z,100398.44
2022-11-07T08:18:58.074Z,100403.84
2022-11-07T08:21:44.611Z,100388.69
2022-11-07T08:24:17.148Z,100397.81
2022-11-07T08:26:44.226Z,100398.69
2022-11-07T08:29:11.204Z,100405.72
2022-11-07T08:31:38.353Z,100398.59
2022-11-07T08:34:05.085Z,100402.41
2022-11-07T08:36:31.861Z,100404.00
2022-11-07T08:38:59.031Z,100410.28
2022-11-07T08:41:26.617Z,100409.09
2022-11-07T08:43:53.317Z,100413.09
2022-11-07T08:46:20.002Z,100415.50
2022-11-07T08:48:46.697Z,100415.59
2022-11-07T08:51:13.379Z,100418.25
2022-11-07T08:53:40.099Z,100419.50
2022-11-07T08:56:09.586Z,100419.09
2022-11-07T08:58:37.508Z,100418.09
2022-11-07T09:01:10.736Z,100417.50
2022-11-07T09:03:48.696Z,100417.38
2022-11-07T09:06:19.980Z,100416.28
2022-11-07T09:08:46.842Z,100420.69
2022-11-07T09:11:15.873Z,100424.97
2022-11-07T09:13:42.848Z,100435.41
2022-11-07T09:16:10.096Z,100427.63
2022-11-07T09:18:36.873Z,100440.06
2022-11-07T09:21:03.780Z,100438.00
2022-11-07T09:23:31.114Z,100439.63
2022-11-07T09:26:01.312Z,100440.97
2022-11-07T09:28:28.627Z,100442.22
2022-11-07T09:30:56.953Z,100442.66
2022-11-07T09:33:24.548Z,100437.88
2022-11-07T09:35:52.229Z,100444.31
2022-11-07T09:38:19.544Z,100444.31
2022-11-07T09:41:06.241Z,100443.72
2022-11-07T09:43:52.085Z,100449.56
2022-11-07T09:46:36.548Z,100449.41
2022-11-07T09:49:15.193Z,100441.81
2022-11-07T09:51:47.726Z,100447.59
2022-11-07T09:54:21.740Z,100446.47
2022-11-07T09:56:49.210Z,100449.91
2022-11-07T09:59:33.853Z,100455.69
2022-11-07T10:02:00.754Z,100455.03
2022-11-07T10:04:27.705Z,100461.09
2022-11-07T10:07:17.729Z,100458.88
2022-11-07T10:09:56.001Z,100458.97
2022-11-07T10:12:44.683Z,100452.06
2022-11-07T10:15:33.790Z,100453.13
2022-11-07T10:18:23.920Z,100453.47
2022-11-07T10:21:31.143Z,100436.44
2022-11-07T10:24:37.896Z,100440.25
2022-11-07T10:27:10.437Z,100443.41
2022-11-07T10:29:53.949Z,100435.84
2022-11-07T10:32:23.216Z,100449.31
2022-11-07T10:35:14.246Z,100448.84
2022-11-07T10:37:40.956Z,100443.72
2022-11-07T10:40:16.907Z,100443.34
2022-11-07T10:42:47.085Z,100442.56
2022-11-07T10:45:17.296Z,100435.34
2022-11-07T10:47:55.261Z,100435.97
2022-11-07T10:50:23.466Z,100435.16
2022-11-07T10:53:09.818Z,100428.94
2022-11-07T10:55:45.822Z,100435.16
2022-11-07T10:58:25.354Z,100422.72
2022-11-07T11:01:09.847Z,100426.72
2022-11-07T11:03:46.238Z,100425.09
2022-11-07T11:06:18.932Z,100418.13
2022-11-07T11:08:51.576Z,100413.50
2022-11-07T11:11:36.161Z,100416.28
2022-11-07T11:14:11.615Z,100422.31
2022-11-07T11:16:40.579Z,100418.53
2022-11-07T11:19:18.024Z,100411.09
2022-11-07T11:21:47.653Z,100410.72
2022-11-07T11:24:29.928Z,100411.50
2022-11-07T11:27:03.644Z,100406.28
2022-11-07T11:29:39.797Z,100405.47
2022-11-07T11:32:17.930Z,100408.03
2022-11-07T11:35:00.863Z,100394.00
2022-11-07T11:37:27.719Z,100397.22
2022-11-07T11:40:02.511Z,100396.63
2022-11-07T11:42:53.763Z,100401.19
2022-11-07T11:45:49.145Z,100395.44
2022-11-07T11:48:49.542Z,100386.34
2022-11-07T11:51:41.011Z,100390.16
2022-11-07T11:54:14.231Z,100393.00
2022-11-07T11:56:44.047Z,100388.81
2022-11-07T11:59:16.641Z,100385.16
2022-11-07T12:02:07.636Z,100375.38
2022-11-07T12:05:09.041Z,100363.78
2022-11-07T12:07:53.076Z,100362.41
2022-11-07T12:10:28.630Z,100367.78
2022-11-07T12:13:15.060Z,100366.59
2022-11-07T12:15:52.662Z,100357.84
2022-11-07T12:18:27.770Z,100357.03
2022-11-07T12:21:25.651Z,100359.22
2022-11-07T12:24:16.518Z,100359.81
2022-11-07T12:26:58.532Z,100350.63
2022-11-07T12:29:51.910Z,100355.03
2022-11-07T12:32:39.298Z,100352.22
2022-11-07T12:35:21.368Z,100351.22
2022-11-07T12:38:06.552Z,100368.84
2022-11-07T12:40:51.341Z,100357.63
2022-11-07T12:43:46.860Z,100367.28
2022-11-07T12:46:22.253Z,100358.06
2022-11-07T12:49:07.488Z,100366.66
2022-11-07T12:52:08.527Z,100356.88
2022-11-07T12:54:37.927Z,100357.88
2022-11-07T12:57:12.443Z,100357.44
2022-11-07T12:59:41.266Z,100363.47
2022-11-07T13:02:26.552Z,100355.28
2022-11-07T13:05:08.535Z,100368.84
2022-11-07T13:07:41.238Z,100368.25
2022-11-07T13:10:25.078Z,100365.03
2022-11-07T13:13:18.205Z,100366.25
2022-11-07T13:16:13.547Z,100359.66
2022-11-07T13:18:32.131Z,100360.03
2022-11-07T13:21:05.501Z,100353.44
2022-11-07T13:23:33.228Z,100353.81
2022-11-07T13:26:10.732Z,100341.44
2022-11-07T13:29:02.001Z,100351.03
2022-11-07T13:31:40.408Z,100345.03
2022-11-07T13:34:23.380Z,100348.00
2022-11-07T13:36:56.242Z,100348.59
2022-11-07T13:39:24.791Z,100346.19
2022-11-07T13:41:52.052Z,100347.59
2022-11-07T13:44:31.492Z,100351.41
2022-11-07T13:47:02.849Z,100349.59
2022-11-07T13:49:45.058Z,100354.41
2022-11-07T13:52:53.782Z,100344.84
2022-11-07T13:55:25.371Z,100336.19
2022-11-07T13:58:03.465Z,100341.38
2022-11-07T14:00:32.401Z,100338.38
2022-11-07T14:03:00.285Z,100340.00
2022-11-07T14:05:29.585Z,100343.59
2022-11-07T14:08:02.378Z,100336.19
2022-11-07T14:10:39.598Z,100338.19
2022-11-07T14:13:22.739Z,100351.03
2022-11-07T14:16:32.996Z,100355.84
2022-11-07T14:19:07.640Z,100353.84
2022-11-07T14:21:36.957Z,100361.66
2022-11-07T14:24:20.024Z,100349.44
2022-11-07T14:26:57.155Z,100352.66
2022-11-07T14:29:23.840Z,100359.69
2022-11-07T14:31:50.700Z,100356.25
2022-11-07T14:34:18.639Z,100352.22
2022-11-07T14:37:21.076Z,100355.66
2022-11-07T14:39:48.704Z,100356.25
2022-11-07T14:42:19.348Z,100346.06
2022-11-07T14:44:54.955Z,100357.47
2022-11-07T14:47:26.940Z,100351.44
2022-11-07T14:49:54.580Z,100356.66
2022-11-07T14:52:24.358Z,100351.06
2022-11-07T14:55:03.256Z,100351.44
2022-11-07T14:57:31.187Z,100349.44
2022-11-07T14:59:58.105Z,100346.25
2022-11-07T15:02:34.929Z,100355.84
2022-11-07T15:05:09.533Z,100356.44
2022-11-07T15:07:47.467Z,100357.47
2022-11-07T15:10:24.633Z,100353.06
2022-11-07T15:12:54.025Z,100352.84
2022-11-07T15:15:22.014Z,100353.25
2022-11-07T15:17:55.071Z,100350.47
2022-11-07T15:20:39.898Z,100334.63
2022-11-07T15:23:14.099Z,100340.66
2022-11-07T15:25:51.104Z,100345.22
2022-11-07T15:28:25.387Z,100345.44
2022-11-07T15:30:55.128Z,100349.00
2022-11-07T15:33:23.274Z,100349.41
2022-11-07T15:35:55.280Z,100346.63
2022-11-07T15:38:24.926Z,100339.38
2022-11-07T15:40:52.060Z,100344.59
2022-11-07T15:43:20.043Z,100342.00
2022-11-07T15:45:49.322Z,100350.56
2022-11-07T15:48:25.719Z,100346.53
2022-11-07T15:50:52.558Z,100355.34
2022-11-07T15:53:28.020Z,100350.13
2022-11-07T15:55:59.194Z,100352.28
2022-11-07T15:58:28.301Z,100358.28
2022-11-07T16:00:55.860Z,100351.47
2022-11-07T16:03:24.708Z,100355.25
2022-11-07T16:05:54.355Z,100355.66
2022-11-07T16:08:24.016Z,100355.41
2022-11-07T16:10:53.794Z,100351.41
2022-11-07T16:13:20.729Z,100359.78
2022-11-07T16:15:57.601Z,100360.75
2022-11-07T16:18:24.588Z,100368.94
2022-11-07T16:20:51.890Z,100367.50
2022-11-07T16:23:19.213Z,100373.47
2022-11-07T16:25:49.902Z,100375.00
2022-11-07T16:28:31.938Z,100375.53
2022-11-07T16:30:59.264Z,100373.72
2022-11-07T16:33:26.993Z,100386.13
2022-11-07T16:35:59.989Z,100388.88
2022-11-07T16:38:32.565Z,100383.69
2022-11-07T16:41:00.741Z,100386.63
2022-11-07T16:43:27.471Z,100393.00
2022-11-07T16:45:57.582Z,100388.56
2022-11-07T16:48:28.914Z,100384.75
2022-11-07T16:50:57.033Z,100391.94
2022-11-07T16:53:25.309Z,100391.69
2022-11-07T16:55:55.366Z,100393.03
2022-11-07T16:58:28.303Z,100389.22
2022-11-07T17:00:56.714Z,100397.00
2022-11-07T17:03:27.738Z,100392.16
2022-11-07T17:05:57.412Z,100394.53
2022-11-07T17:08:26.955Z,100394.06
2022-11-07T17:10:55.863Z,100390.06
2022-11-07T17:13:23.210Z,100392.44
2022-11-07T17:15:50.466Z,100389.22
2022-11-07T17:18:22.408Z,100383.94
2022-11-07T17:20:51.632Z,100389.31
2022-11-07T17:23:19.589Z,100387.13
2022-11-07T17:25:53.381Z,100391.03
2022-11-07T17:28:21.009Z,100394.81
2022-11-07T17:30:47.765Z,100387.75
2022-11-07T17:33:15.801Z,100380.53
2022-11-07T17:35:42.729Z,100384.94
2022-11-07T17:38:17.277Z,100383.25
2022-11-07T17:40:44.547Z,100387.97
2022-11-07T17:43:11.299Z,100396.28
2022-11-07T17:45:38.419Z,100399.25
2022-11-07T17:48:05.343Z,100400.06
2022-11-07T17:50:32.072Z,100390.25
2022-11-07T17:52:58.761Z,100389.78
2022-11-07T17:55:25.601Z,100392.13
2022-11-07T17:57:52.446Z,100388.91
2022-11-07T18:00:22.657Z,100388.44
2022-11-07T18:02:53.695Z,100386.88
2022-11-07T18:05:30.123Z,100381.25
2022-11-07T18:07:59.698Z,100384.44
2022-11-07T18:10:26.523Z,100385.78
2022-11-07T18:12:56.965Z,100383.56
2022-11-07T18:15:23.709Z,100380.03
2022-11-07T18:17:53.244Z,100387.13
2022-11-07T18:20:19.937Z,100384.28
2022-11-07T18:22:46.903Z,100380.69
2022-11-07T18:25:13.682Z,100381.50
2022-11-07T18:27:40.361Z,100386.69
2022-11-07T18:30:09.013Z,100381.50
2022-11-07T18:32:38.824Z,100389.44
2022-11-07T18:35:06.464Z,100390.66
2022-11-07T18:37:35.690Z,100389.03
2022-11-07T18:40:02.798Z,100385.78
2022-11-07T18:42:31.104Z,100393.09
2022-11-07T18:44:57.815Z,100382.16
2022-11-07T18:47:24.702Z,100388.81
2022-11-07T18:49:55.750Z,100388.41
2022-11-07T18:52:24.256Z,100391.34
2022-11-07T18:54:51.579Z,100379.38
2022-11-07T18:57:18.293Z,100390.84
2022-11-07T18:59:45.774Z,100385.06
2022-11-07T19:02:14.289Z,100382.56
2022-11-07T19:04:41.357Z,100382.56
2022-11-07T19:07:09.460Z,100377.72
2022-11-07T19:09:37.992Z,100388.91
2022-11-07T19:12:04.965Z,100395.41
2022-11-07T19:14:32.394Z,100395.56
2022-11-07T19:17:00.281Z,100401.44
2022-11-07T19:19:27.033Z,100398.75
2022-11-07T19:21:53.736Z,100395.59
2022-11-07T19:24:20.553Z,100393.41
2022-11-07T19:26:47.332Z,100396.91
2022-11-07T19:29:14.046Z,100400.34
2022-11-07T19:31:40.786Z,100407.28
2022-11-07T19:34:07.596Z,100403.09
2022-11-07T19:36:35.376Z,100398.91
2022-11-07T19:39:03.078Z,100405.06
2022-11-07T19:41:30.083Z,100406.97
2022-11-07T19:43:57.437Z,100418.13
2022-11-07T19:46:24.668Z,100410.56
2022-11-07T19:51:45.164Z,100422.28
2022-11-07T19:54:12.351Z,100423.59
2022-11-07T19:56:40.200Z,100424.56
2022-11-07T19:59:06.928Z,100417.31
2022-11-07T20:01:35.254Z,100416.66
2022-11-07T20:04:03.484Z,100411.66
2022-11-07T20:06:35.667Z,100416.03
2022-11-07T20:09:06.239Z,100421.84
2022-11-07T20:11:33.148Z,100416.50
2022-11-07T20:14:03.579Z,100419.72
2022-11-07T20:16:33.231Z,100414.41
2022-11-07T20:19:00.703Z,100413.41
2022-11-07T20:21:29.114Z,100414.50
2022-11-07T20:23:58.105Z,100411.75
2022-11-07T20:26:26.873Z,100406.41
2022-11-07T20:28:53.814Z,100413.19
2022-11-07T20:31:23.940Z,100408.03
2022-11-07T20:33:51.079Z,100419.63
2022-11-07T20:36:18.811Z,100418.66
2022-11-07T20:38:45.696Z,100417.69
2022-11-07T20:41:13.430Z,100424.47
2022-11-07T20:43:41.429Z,100424.47
2022-11-07T20:46:11.043Z,100433.63
2022-11-07T20:48:38.912Z,100409.97
2022-11-07T20:51:08.558Z,100428.66
2022-11-07T20:53:36.479Z,100426.06
2022-11-07T20:56:05.366Z,100427.66
2022-11-07T20:58:38.033Z,100429.97
2022-11-07T21:01:06.410Z,100432.56
2022-11-07T21:03:35.031Z,100428.84
2022-11-07T21:06:01.966Z,100431.59
2022-11-07T21:08:36.993Z,100420.63
2022-11-07T21:11:04.130Z,100415.16
2022-11-07T21:13:30.905Z,100414.47
2022-11-07T21:15:57.820Z,100431.13
2022-11-07T21:18:24.846Z,100419.97
2022-11-07T21:20:51.652Z,100423.88
2022-11-07T21:23:18.672Z,100427.59
2022-11-07T21:25:48.521Z,100421.38
2022-11-07T21:28:17.907Z,100424.91
2022-11-07T21:30:57.860Z,100417.81
2022-11-07T21:33:25.182Z,100415.09
2022-11-07T21:35:52.024Z,100415.44
2022-11-07T21:38:18.724Z,100416.09
2022-11-07T21:40:45.552Z,100413.69
2022-11-07T21:43:12.389Z,100419.41
2022-11-07T21:45:39.189Z,100406.81
2022-11-07T21:48:06.137Z,100419.88
2022-11-07T21:50:44.794Z,100412.91
2022-11-07T21:53:12.159Z,100412.44
2022-11-07T21:55:38.908Z,100413.63
2022-11-07T21:58:07.061Z,100418.34
2022-11-07T22:00:36.771Z,100406.69
2022-11-07T22:03:04.313Z,100415.75
2022-11-07T22:05:31.046Z,100417.72
2022-11-07T22:07:58.058Z,100418.53
2022-11-07T22:10:24.817Z,100414.50
2022-11-07T22:12:52.828Z,100407.69
2022-11-07T22:15:20.146Z,100407.38
2022-11-07T22:17:48.109Z,100406.88
2022-11-07T22:20:16.440Z,100408.03
2022-11-07T22:22:43.817Z,100409.97
2022-11-07T22:25:10.739Z,100409.34
2022-11-07T22:27:37.572Z,100413.06
2022-11-07T22:30:05.575Z,100410.16
2022-11-07T22:32:32.301Z,100407.72
2022-11-07T22:34:59.038Z,100406.47
2022-11-07T22:37:25.797Z,100413.06
2022-11-07T22:39:53.324Z,100419.03
2022-11-07T22:42:23.742Z,100423.25
2022-11-07T22:44:51.641Z,100419.72
2022-11-07T22:47:19.569Z,100416.16
2022-11-07T22:49:46.249Z,100416.31
2022-11-07T22:52:12.983Z,100413.88
2022-11-07T22:54:39.650Z,100417.44
2022-11-07T22:57:06.349Z,100413.25
2022-11-07T22:59:33.262Z,100414.56
2022-11-07T23:02:00.048Z,100409.06
2022-11-07T23:04:32.441Z,100415.53
2022-11-07T23:06:59.638Z,100421.00
2022-11-07T23:09:26.365Z,100419.53
2022-11-07T23:11:53.208Z,100416.50
2022-11-07T23:14:21.958Z,100422.31
2022-11-07T23:16:51.102Z,100415.38
2022-11-07T23:19:19.902Z,100421.34
2022-11-07T23:21:47.001Z,100433.22
2022-11-07T23:24:13.959Z,100415.50
2022-11-07T23:26:40.820Z,100419.69
2022-11-07T23:29:33.907Z,100423.59
2022-11-07T23:32:00.654Z,100427.59
2022-11-07T23:34:27.474Z,100422.59
2022-11-07T23:36:54.289Z,100436.09
2022-11-07T23:39:23.383Z,100428.03
2022-11-07T23:41:51.268Z,100426.19
2022-11-07T23:44:17.972Z,100420.56
2022-11-07T23:47:03.260Z,100423.16
2022-11-07T23:49:48.806Z,100429.72
2022-11-07T23:52:18.045Z,100414.59
2022-11-07T23:55:03.241Z,100410.44
2022-11-07T23:57:34.295Z,100414.59
